sensor_id;sensor_type;location;lat;lon;timestamp;P1;P2;P0
75960;PMS7003;64644;48.914;2.254;2022-12-07T00:01:13;66.75;55.25;36.50
75960;PMS7003;64644;48.914;2.254;2022-12-07T00:03:41;65.25;51.75;34.00
75960;PMS7003;64644;48.914;2.254;2022-12-07T00:06:09;68.50;52.00;34.00
75960;PMS7003;64644;48.914;2.254;2022-12-07T00:08:35;61.00;51.50;34.00
75960;PMS7003;64644;48.914;2.254;2022-12-07T00:11:08;63.25;54.50;36.00
75960;PMS7003;64644;48.914;2.254;2022-12-07T00:13:38;67.00;52.75;33.25
75960;PMS7003;64644;48.914;2.254;2022-12-07T00:16:17;64.50;52.00;33.75
75960;PMS7003;64644;48.914;2.254;2022-12-07T00:18:44;61.75;51.75;33.25
75960;PMS7003;64644;48.914;2.254;2022-12-07T00:21:15;61.25;52.75;35.25
75960;PMS7003;64644;48.914;2.254;2022-12-07T00:23:43;60.00;49.50;34.00
75960;PMS7003;64644;48.914;2.254;2022-12-07T00:26:18;64.75;52.75;36.00
75960;PMS7003;64644;48.914;2.254;2022-12-07T00:28:48;66.25;52.75;34.00
75960;PMS7003;64644;48.914;2.254;2022-12-07T00:31:27;69.25;55.75;36.00
75960;PMS7003;64644;48.914;2.254;2022-12-07T00:33:55;61.50;51.50;34.75
75960;PMS7003;64644;48.914;2.254;2022-12-07T00:36:21;65.25;52.00;34.25
75960;PMS7003;64644;48.914;2.254;2022-12-07T00:38:48;57.00;49.00;33.75
75960;PMS7003;64644;48.914;2.254;2022-12-07T00:41:14;62.25;52.75;36.25
75960;PMS7003;64644;48.914;2.254;2022-12-07T00:43:42;69.25;54.75;36.00
75960;PMS7003;64644;48.914;2.254;2022-12-07T00:46:08;70.50;57.00;35.75
75960;PMS7003;64644;48.914;2.254;2022-12-07T00:48:34;56.75;49.00;35.75
75960;PMS7003;64644;48.914;2.254;2022-12-07T00:50:59;72.75;58.00;36.00
75960;PMS7003;64644;48.914;2.254;2022-12-07T00:53:25;57.25;50.00;32.00
75960;PMS7003;64644;48.914;2.254;2022-12-07T00:55:51;65.25;53.25;33.75
75960;PMS7003;64644;48.914;2.254;2022-12-07T00:58:17;68.75;52.00;33.25
75960;PMS7003;64644;48.914;2.254;2022-12-07T01:00:43;67.25;52.00;34.00
75960;PMS7003;64644;48.914;2.254;2022-12-07T01:03:10;52.50;48.75;32.25
75960;PMS7003;64644;48.914;2.254;2022-12-07T01:05:37;63.50;49.00;30.00
75960;PMS7003;64644;48.914;2.254;2022-12-07T01:08:02;60.25;50.75;31.00
75960;PMS7003;64644;48.914;2.254;2022-12-07T01:10:28;58.25;48.50;31.25
75960;PMS7003;64644;48.914;2.254;2022-12-07T01:12:55;64.00;51.75;30.25
75960;PMS7003;64644;48.914;2.254;2022-12-07T01:15:21;55.25;42.75;29.50
75960;PMS7003;64644;48.914;2.254;2022-12-07T01:17:47;53.50;44.25;29.50
75960;PMS7003;64644;48.914;2.254;2022-12-07T01:20:12;45.50;44.50;29.50
75960;PMS7003;64644;48.914;2.254;2022-12-07T01:22:39;44.75;40.25;29.50
75960;PMS7003;64644;48.914;2.254;2022-12-07T01:25:06;47.50;43.25;30.50
75960;PMS7003;64644;48.914;2.254;2022-12-07T01:27:33;52.00;48.00;30.00
75960;PMS7003;64644;48.914;2.254;2022-12-07T01:29:59;54.00;48.00;29.50
75960;PMS7003;64644;48.914;2.254;2022-12-07T01:32:25;48.75;39.00;25.00
75960;PMS7003;64644;48.914;2.254;2022-12-07T01:34:50;46.25;41.00;25.75
75960;PMS7003;64644;48.914;2.254;2022-12-07T01:37:16;48.50;41.00;26.00
75960;PMS7003;64644;48.914;2.254;2022-12-07T01:39:41;42.75;34.25;22.00
75960;PMS7003;64644;48.914;2.254;2022-12-07T01:42:10;46.00;36.25;22.25
75960;PMS7003;64644;48.914;2.254;2022-12-07T01:47:40;35.75;33.75;25.25
75960;PMS7003;64644;48.914;2.254;2022-12-07T01:50:07;39.50;36.50;21.50
75960;PMS7003;64644;48.914;2.254;2022-12-07T01:52:33;45.75;42.75;26.00
75960;PMS7003;64644;48.914;2.254;2022-12-07T01:55:03;27.25;26.75;18.50
75960;PMS7003;64644;48.914;2.254;2022-12-07T01:57:32;41.25;33.75;21.25
75960;PMS7003;64644;48.914;2.254;2022-12-07T01:59:59;42.25;36.75;21.00
75960;PMS7003;64644;48.914;2.254;2022-12-07T02:02:26;45.50;35.00;21.25
75960;PMS7003;64644;48.914;2.254;2022-12-07T02:04:56;35.00;31.50;20.75
75960;PMS7003;64644;48.914;2.254;2022-12-07T02:07:24;30.25;25.50;18.25
75960;PMS7003;64644;48.914;2.254;2022-12-07T02:09:51;31.75;31.25;20.00
75960;PMS7003;64644;48.914;2.254;2022-12-07T02:12:17;34.50;32.25;21.75
75960;PMS7003;64644;48.914;2.254;2022-12-07T02:14:43;36.25;32.75;21.50
75960;PMS7003;64644;48.914;2.254;2022-12-07T02:28:29;36.50;34.50;24.00
75960;PMS7003;64644;48.914;2.254;2022-12-07T02:31:01;39.25;33.00;24.00
75960;PMS7003;64644;48.914;2.254;2022-12-07T02:33:50;31.00;29.00;20.00
75960;PMS7003;64644;48.914;2.254;2022-12-07T02:36:29;33.25;29.25;20.50
75960;PMS7003;64644;48.914;2.254;2022-12-07T02:39:06;34.25;28.50;21.25
75960;PMS7003;64644;48.914;2.254;2022-12-07T02:41:52;30.50;26.50;16.00
75960;PMS7003;64644;48.914;2.254;2022-12-07T02:44:23;30.00;28.00;18.25
75960;PMS7003;64644;48.914;2.254;2022-12-07T02:47:00;38.00;36.50;17.00
75960;PMS7003;64644;48.914;2.254;2022-12-07T02:49:29;38.50;31.50;21.50
75960;PMS7003;64644;48.914;2.254;2022-12-07T02:51:55;46.75;36.50;21.50
75960;PMS7003;64644;48.914;2.254;2022-12-07T02:54:21;35.00;28.50;20.00
75960;PMS7003;64644;48.914;2.254;2022-12-07T02:56:48;35.00;31.25;23.50
75960;PMS7003;64644;48.914;2.254;2022-12-07T03:10:10;40.00;34.00;22.50
75960;PMS7003;64644;48.914;2.254;2022-12-07T03:12:45;35.00;31.25;21.00
75960;PMS7003;64644;48.914;2.254;2022-12-07T03:15:32;34.50;30.25;19.50
75960;PMS7003;64644;48.914;2.254;2022-12-07T03:18:05;32.75;28.50;19.00
75960;PMS7003;64644;48.914;2.254;2022-12-07T03:20:33;27.50;26.75;18.00
75960;PMS7003;64644;48.914;2.254;2022-12-07T03:23:04;27.75;25.50;16.50
75960;PMS7003;64644;48.914;2.254;2022-12-07T03:25:34;30.00;27.50;19.00
75960;PMS7003;64644;48.914;2.254;2022-12-07T03:28:04;29.75;26.00;18.00
75960;PMS7003;64644;48.914;2.254;2022-12-07T03:30:34;26.75;24.25;17.50
75960;PMS7003;64644;48.914;2.254;2022-12-07T03:33:18;25.50;23.00;13.00
75960;PMS7003;64644;48.914;2.254;2022-12-07T03:35:52;26.75;21.50;15.50
75960;PMS7003;64644;48.914;2.254;2022-12-07T03:41:01;29.75;24.25;16.00
75960;PMS7003;64644;48.914;2.254;2022-12-07T03:43:48;24.25;23.50;16.00
75960;PMS7003;64644;48.914;2.254;2022-12-07T03:46:17;22.50;19.50;15.50
75960;PMS7003;64644;48.914;2.254;2022-12-07T03:48:59;29.50;27.00;15.00
75960;PMS7003;64644;48.914;2.254;2022-12-07T03:51:36;30.50;26.00;18.00
75960;PMS7003;64644;48.914;2.254;2022-12-07T03:54:25;26.25;21.75;15.00
75960;PMS7003;64644;48.914;2.254;2022-12-07T03:56:55;29.00;28.25;16.25
75960;PMS7003;64644;48.914;2.254;2022-12-07T03:59:22;21.50;15.00;7.50
75960;PMS7003;64644;48.914;2.254;2022-12-07T04:01:55;29.00;24.50;15.00
75960;PMS7003;64644;48.914;2.254;2022-12-07T04:04:26;26.50;22.00;15.00
75960;PMS7003;64644;48.914;2.254;2022-12-07T04:06:51;30.00;25.75;17.50
75960;PMS7003;64644;48.914;2.254;2022-12-07T04:09:17;28.75;25.25;15.50
75960;PMS7003;64644;48.914;2.254;2022-12-07T04:11:43;29.75;27.00;15.75
75960;PMS7003;64644;48.914;2.254;2022-12-07T04:14:08;24.50;20.25;15.50
75960;PMS7003;64644;48.914;2.254;2022-12-07T04:16:53;23.50;23.00;17.00
75960;PMS7003;64644;48.914;2.254;2022-12-07T04:19:24;26.25;22.50;16.50
75960;PMS7003;64644;48.914;2.254;2022-12-07T04:21:51;27.75;23.50;16.50
75960;PMS7003;64644;48.914;2.254;2022-12-07T04:24:16;27.00;22.75;16.75
75960;PMS7003;64644;48.914;2.254;2022-12-07T04:26:43;25.25;21.25;12.75
75960;PMS7003;64644;48.914;2.254;2022-12-07T04:29:09;30.25;25.25;16.00
75960;PMS7003;64644;48.914;2.254;2022-12-07T04:31:36;33.25;25.50;16.50
75960;PMS7003;64644;48.914;2.254;2022-12-07T04:34:02;24.50;24.00;15.75
75960;PMS7003;64644;48.914;2.254;2022-12-07T04:36:28;31.50;23.00;15.25
75960;PMS7003;64644;48.914;2.254;2022-12-07T04:38:53;32.75;29.00;16.00
75960;PMS7003;64644;48.914;2.254;2022-12-07T04:41:20;31.00;30.50;18.00
75960;PMS7003;64644;48.914;2.254;2022-12-07T04:43:51;27.50;25.50;15.00
75960;PMS7003;64644;48.914;2.254;2022-12-07T04:46:23;21.25;20.00;15.50
75960;PMS7003;64644;48.914;2.254;2022-12-07T04:48:50;24.50;21.75;15.00
75960;PMS7003;64644;48.914;2.254;2022-12-07T04:51:18;27.50;21.00;15.00
75960;PMS7003;64644;48.914;2.254;2022-12-07T04:53:45;24.75;20.50;15.50
75960;PMS7003;64644;48.914;2.254;2022-12-07T04:56:11;27.50;23.50;15.75
75960;PMS7003;64644;48.914;2.254;2022-12-07T04:58:36;27.25;23.50;15.00
75960;PMS7003;64644;48.914;2.254;2022-12-07T05:01:02;21.75;19.50;13.50
75960;PMS7003;64644;48.914;2.254;2022-12-07T05:03:27;27.25;24.50;17.00
75960;PMS7003;64644;48.914;2.254;2022-12-07T05:05:53;18.00;16.50;13.00
75960;PMS7003;64644;48.914;2.254;2022-12-07T05:08:18;28.00;24.75;15.25
75960;PMS7003;64644;48.914;2.254;2022-12-07T05:10:43;16.00;14.25;12.00
75960;PMS7003;64644;48.914;2.254;2022-12-07T05:13:09;25.50;21.50;15.75
75960;PMS7003;64644;48.914;2.254;2022-12-07T05:15:34;23.00;20.00;13.00
75960;PMS7003;64644;48.914;2.254;2022-12-07T05:18:00;29.75;22.50;15.00
75960;PMS7003;64644;48.914;2.254;2022-12-07T05:20:25;27.50;26.50;15.50
75960;PMS7003;64644;48.914;2.254;2022-12-07T05:22:50;21.25;18.25;12.75
75960;PMS7003;64644;48.914;2.254;2022-12-07T05:25:16;22.00;18.75;12.50
75960;PMS7003;64644;48.914;2.254;2022-12-07T05:27:41;24.00;17.75;12.00
75960;PMS7003;64644;48.914;2.254;2022-12-07T05:30:07;28.00;23.00;17.00
75960;PMS7003;64644;48.914;2.254;2022-12-07T05:32:33;23.00;21.50;15.50
75960;PMS7003;64644;48.914;2.254;2022-12-07T05:34:58;21.50;21.00;14.00
75960;PMS7003;64644;48.914;2.254;2022-12-07T05:37:24;22.25;18.25;12.25
75960;PMS7003;64644;48.914;2.254;2022-12-07T05:39:49;20.50;18.25;13.50
75960;PMS7003;64644;48.914;2.254;2022-12-07T05:42:14;16.75;14.50;12.25
75960;PMS7003;64644;48.914;2.254;2022-12-07T05:44:42;22.00;20.75;13.50
75960;PMS7003;64644;48.914;2.254;2022-12-07T05:47:10;28.00;22.75;16.00
75960;PMS7003;64644;48.914;2.254;2022-12-07T05:49:36;25.25;23.50;17.50
75960;PMS7003;64644;48.914;2.254;2022-12-07T05:52:02;29.00;25.25;15.25
75960;PMS7003;64644;48.914;2.254;2022-12-07T05:54:28;30.75;23.50;16.00
75960;PMS7003;64644;48.914;2.254;2022-12-07T05:56:53;32.00;25.00;18.75
75960;PMS7003;64644;48.914;2.254;2022-12-07T05:59:19;30.00;24.25;15.00
75960;PMS7003;64644;48.914;2.254;2022-12-07T06:02:04;27.25;25.00;16.50
75960;PMS7003;64644;48.914;2.254;2022-12-07T06:04:34;39.00;26.50;17.00
75960;PMS7003;64644;48.914;2.254;2022-12-07T06:07:02;31.50;24.00;18.00
75960;PMS7003;64644;48.914;2.254;2022-12-07T06:09:28;29.50;25.00;15.00
75960;PMS7003;64644;48.914;2.254;2022-12-07T06:11:54;24.50;21.25;15.00
75960;PMS7003;64644;48.914;2.254;2022-12-07T06:14:39;25.50;24.25;18.00
75960;PMS7003;64644;48.914;2.254;2022-12-07T06:17:05;25.00;23.50;14.00
75960;PMS7003;64644;48.914;2.254;2022-12-07T06:19:30;25.00;20.25;14.50
75960;PMS7003;64644;48.914;2.254;2022-12-07T06:21:56;27.75;21.75;15.00
75960;PMS7003;64644;48.914;2.254;2022-12-07T06:24:22;25.25;24.75;15.50
75960;PMS7003;64644;48.914;2.254;2022-12-07T06:26:47;21.25;19.00;12.25
75960;PMS7003;64644;48.914;2.254;2022-12-07T06:29:13;31.50;24.00;15.25
75960;PMS7003;64644;48.914;2.254;2022-12-07T06:31:39;21.75;20.00;14.50
75960;PMS7003;64644;48.914;2.254;2022-12-07T06:34:05;23.00;19.50;12.75
75960;PMS7003;64644;48.914;2.254;2022-12-07T06:36:34;27.75;23.50;14.00
75960;PMS7003;64644;48.914;2.254;2022-12-07T06:38:59;19.00;17.75;11.75
75960;PMS7003;64644;48.914;2.254;2022-12-07T06:41:25;24.00;21.50;15.75
75960;PMS7003;64644;48.914;2.254;2022-12-07T06:43:51;27.75;26.00;15.75
75960;PMS7003;64644;48.914;2.254;2022-12-07T06:46:16;25.50;23.50;16.50
75960;PMS7003;64644;48.914;2.254;2022-12-07T06:48:42;25.75;24.50;16.00
75960;PMS7003;64644;48.914;2.254;2022-12-07T06:51:08;28.75;26.50;13.75
75960;PMS7003;64644;48.914;2.254;2022-12-07T06:53:33;24.50;22.50;15.50
75960;PMS7003;64644;48.914;2.254;2022-12-07T06:55:59;26.25;24.25;14.50
75960;PMS7003;64644;48.914;2.254;2022-12-07T06:58:24;20.75;20.00;13.00
75960;PMS7003;64644;48.914;2.254;2022-12-07T07:00:50;26.50;24.00;16.00
75960;PMS7003;64644;48.914;2.254;2022-12-07T07:03:16;32.00;26.50;16.00
75960;PMS7003;64644;48.914;2.254;2022-12-07T07:05:42;25.50;24.50;15.00
75960;PMS7003;64644;48.914;2.254;2022-12-07T07:08:07;28.00;23.00;15.00
75960;PMS7003;64644;48.914;2.254;2022-12-07T07:10:33;25.00;22.00;18.50
75960;PMS7003;64644;48.914;2.254;2022-12-07T07:12:59;23.25;23.25;17.25
75960;PMS7003;64644;48.914;2.254;2022-12-07T07:15:24;22.00;19.50;13.25
75960;PMS7003;64644;48.914;2.254;2022-12-07T07:17:50;30.75;24.75;16.00
75960;PMS7003;64644;48.914;2.254;2022-12-07T07:20:15;25.75;19.50;15.00
75960;PMS7003;64644;48.914;2.254;2022-12-07T07:22:41;24.50;22.75;14.00
75960;PMS7003;64644;48.914;2.254;2022-12-07T07:25:06;23.00;20.25;13.50
75960;PMS7003;64644;48.914;2.254;2022-12-07T07:27:31;23.75;21.50;15.00
75960;PMS7003;64644;48.914;2.254;2022-12-07T07:29:57;33.75;26.75;17.50
75960;PMS7003;64644;48.914;2.254;2022-12-07T07:32:22;30.25;24.50;17.50
75960;PMS7003;64644;48.914;2.254;2022-12-07T07:34:48;25.75;24.25;17.50
75960;PMS7003;64644;48.914;2.254;2022-12-07T07:37:13;28.00;25.50;16.25
75960;PMS7003;64644;48.914;2.254;2022-12-07T07:39:39;23.75;20.50;12.75
75960;PMS7003;64644;48.914;2.254;2022-12-07T07:42:04;28.00;24.50;18.00
75960;PMS7003;64644;48.914;2.254;2022-12-07T07:44:32;27.50;26.50;17.00
75960;PMS7003;64644;48.914;2.254;2022-12-07T07:46:58;28.50;25.00;18.00
75960;PMS7003;64644;48.914;2.254;2022-12-07T07:49:23;29.50;25.50;18.75
75960;PMS7003;64644;48.914;2.254;2022-12-07T07:51:50;32.50;27.25;19.00
75960;PMS7003;64644;48.914;2.254;2022-12-07T07:54:15;31.75;29.00;21.75
75960;PMS7003;64644;48.914;2.254;2022-12-07T07:56:40;36.50;30.25;18.75
75960;PMS7003;64644;48.914;2.254;2022-12-07T07:59:06;40.25;35.00;23.00
75960;PMS7003;64644;48.914;2.254;2022-12-07T08:01:31;32.25;30.00;19.00
75960;PMS7003;64644;48.914;2.254;2022-12-07T08:03:57;36.75;33.75;20.00
75960;PMS7003;64644;48.914;2.254;2022-12-07T08:06:22;34.00;30.25;20.50
75960;PMS7003;64644;48.914;2.254;2022-12-07T08:08:47;35.75;29.00;17.50
75960;PMS7003;64644;48.914;2.254;2022-12-07T08:11:12;35.25;30.00;21.00
75960;PMS7003;64644;48.914;2.254;2022-12-07T08:13:38;28.50;24.75;16.00
75960;PMS7003;64644;48.914;2.254;2022-12-07T08:16:08;30.00;22.00;14.50
75960;PMS7003;64644;48.914;2.254;2022-12-07T08:18:37;31.50;24.00;17.50
75960;PMS7003;64644;48.914;2.254;2022-12-07T08:21:04;31.75;27.00;18.50
75960;PMS7003;64644;48.914;2.254;2022-12-07T08:23:31;24.50;23.75;13.00
75960;PMS7003;64644;48.914;2.254;2022-12-07T08:26:06;37.75;28.00;18.50
75960;PMS7003;64644;48.914;2.254;2022-12-07T08:28:34;31.00;25.00;19.50
75960;PMS7003;64644;48.914;2.254;2022-12-07T08:31:00;29.25;26.75;17.25
75960;PMS7003;64644;48.914;2.254;2022-12-07T08:33:29;28.75;26.50;18.50
75960;PMS7003;64644;48.914;2.254;2022-12-07T08:35:59;34.00;27.00;18.00
75960;PMS7003;64644;48.914;2.254;2022-12-07T08:38:29;36.25;31.00;21.25
75960;PMS7003;64644;48.914;2.254;2022-12-07T08:40:54;39.25;33.75;21.00
75960;PMS7003;64644;48.914;2.254;2022-12-07T08:43:20;38.50;35.25;20.00
75960;PMS7003;64644;48.914;2.254;2022-12-07T08:45:47;29.75;27.00;15.50
75960;PMS7003;64644;48.914;2.254;2022-12-07T08:48:16;36.25;30.25;21.00
75960;PMS7003;64644;48.914;2.254;2022-12-07T08:50:46;32.50;29.25;20.50
75960;PMS7003;64644;48.914;2.254;2022-12-07T08:53:12;39.50;35.50;23.75
75960;PMS7003;64644;48.914;2.254;2022-12-07T08:55:37;41.25;38.50;24.25
75960;PMS7003;64644;48.914;2.254;2022-12-07T08:58:03;38.75;33.00;24.25
75960;PMS7003;64644;48.914;2.254;2022-12-07T09:00:28;36.25;35.50;24.25
75960;PMS7003;64644;48.914;2.254;2022-12-07T09:02:54;40.75;32.75;23.25
75960;PMS7003;64644;48.914;2.254;2022-12-07T09:05:19;37.25;34.75;23.75
75960;PMS7003;64644;48.914;2.254;2022-12-07T09:07:45;42.75;36.25;21.75
75960;PMS7003;64644;48.914;2.254;2022-12-07T09:10:15;32.75;30.50;20.50
75960;PMS7003;64644;48.914;2.254;2022-12-07T09:12:40;38.25;35.25;24.25
75960;PMS7003;64644;48.914;2.254;2022-12-07T09:15:06;49.00;41.00;28.00
75960;PMS7003;64644;48.914;2.254;2022-12-07T09:17:33;38.75;34.25;24.75
75960;PMS7003;64644;48.914;2.254;2022-12-07T09:19:59;39.50;34.00;25.00
75960;PMS7003;64644;48.914;2.254;2022-12-07T09:22:28;39.00;37.75;26.00
75960;PMS7003;64644;48.914;2.254;2022-12-07T09:24:54;42.75;37.25;22.00
75960;PMS7003;64644;48.914;2.254;2022-12-07T09:27:19;43.25;43.25;26.25
75960;PMS7003;64644;48.914;2.254;2022-12-07T09:29:45;40.75;40.25;25.00
75960;PMS7003;64644;48.914;2.254;2022-12-07T09:32:10;34.00;30.50;19.50
75960;PMS7003;64644;48.914;2.254;2022-12-07T09:34:36;34.00;33.75;25.00
75960;PMS7003;64644;48.914;2.254;2022-12-07T09:37:01;38.00;33.25;22.00
75960;PMS7003;64644;48.914;2.254;2022-12-07T09:39:28;51.00;43.25;27.50
75960;PMS7003;64644;48.914;2.254;2022-12-07T09:41:53;49.25;39.75;25.25
75960;PMS7003;64644;48.914;2.254;2022-12-07T09:44:24;44.25;32.50;22.00
75960;PMS7003;64644;48.914;2.254;2022-12-07T09:46:51;37.25;32.50;24.25
75960;PMS7003;64644;48.914;2.254;2022-12-07T09:49:18;42.50;39.25;25.50
75960;PMS7003;64644;48.914;2.254;2022-12-07T09:51:46;47.75;38.75;25.00
75960;PMS7003;64644;48.914;2.254;2022-12-07T09:54:13;43.25;40.25;23.75
75960;PMS7003;64644;48.914;2.254;2022-12-07T09:56:41;31.50;28.25;19.25
75960;PMS7003;64644;48.914;2.254;2022-12-07T09:59:10;43.25;38.75;20.50
75960;PMS7003;64644;48.914;2.254;2022-12-07T10:01:41;44.00;39.75;23.50
75960;PMS7003;64644;48.914;2.254;2022-12-07T10:04:11;39.25;36.75;22.75
75960;PMS7003;64644;48.914;2.254;2022-12-07T10:06:40;36.00;31.75;23.25
75960;PMS7003;64644;48.914;2.254;2022-12-07T10:09:10;32.25;31.00;20.25
75960;PMS7003;64644;48.914;2.254;2022-12-07T10:11:57;30.50;30.50;20.75
75960;PMS7003;64644;48.914;2.254;2022-12-07T10:14:34;32.50;30.00;20.50
75960;PMS7003;64644;48.914;2.254;2022-12-07T10:17:01;37.25;35.00;22.75
75960;PMS7003;64644;48.914;2.254;2022-12-07T10:19:28;35.25;31.00;21.50
75960;PMS7003;64644;48.914;2.254;2022-12-07T10:22:02;34.25;31.50;20.75
75960;PMS7003;64644;48.914;2.254;2022-12-07T10:24:34;31.25;27.25;20.25
75960;PMS7003;64644;48.914;2.254;2022-12-07T10:26:59;35.00;31.75;22.50
75960;PMS7003;64644;48.914;2.254;2022-12-07T10:31:57;31.00;28.75;14.00
75960;PMS7003;64644;48.914;2.254;2022-12-07T10:34:30;41.00;34.00;24.00
75960;PMS7003;64644;48.914;2.254;2022-12-07T10:37:13;42.25;36.25;23.00
75960;PMS7003;64644;48.914;2.254;2022-12-07T10:42:24;38.25;33.00;23.50
75960;PMS7003;64644;48.914;2.254;2022-12-07T10:53:01;36.25;34.50;25.75
75960;PMS7003;64644;48.914;2.254;2022-12-07T11:01:23;45.00;36.00;26.25
75960;PMS7003;64644;48.914;2.254;2022-12-07T11:06:33;46.00;40.00;24.75
75960;PMS7003;64644;48.914;2.254;2022-12-07T11:14:36;50.50;45.00;25.50
75960;PMS7003;64644;48.914;2.254;2022-12-07T11:19:58;47.50;44.00;26.50
75960;PMS7003;64644;48.914;2.254;2022-12-07T11:25:32;46.75;39.75;24.75
75960;PMS7003;64644;48.914;2.254;2022-12-07T11:28:12;36.25;33.75;23.00
75960;PMS7003;64644;48.914;2.254;2022-12-07T11:33:47;35.75;32.50;20.00
75960;PMS7003;64644;48.914;2.254;2022-12-07T11:36:31;33.00;30.00;21.25
75960;PMS7003;64644;48.914;2.254;2022-12-07T11:42:02;39.00;35.25;26.75
75960;PMS7003;64644;48.914;2.254;2022-12-07T11:55:41;45.00;37.75;22.50
75960;PMS7003;64644;48.914;2.254;2022-12-07T11:58:27;44.50;34.25;21.00
75960;PMS7003;64644;48.914;2.254;2022-12-07T12:01:08;35.75;33.25;24.00
75960;PMS7003;64644;48.914;2.254;2022-12-07T12:03:54;45.50;37.25;24.00
75960;PMS7003;64644;48.914;2.254;2022-12-07T12:06:42;37.75;34.50;23.50
75960;PMS7003;64644;48.914;2.254;2022-12-07T12:28:23;42.50;38.75;26.00
75960;PMS7003;64644;48.914;2.254;2022-12-07T12:31:10;40.75;36.50;23.25
75960;PMS7003;64644;48.914;2.254;2022-12-07T12:39:07;44.00;41.00;26.00
75960;PMS7003;64644;48.914;2.254;2022-12-07T12:46:52;33.00;28.50;23.75
75960;PMS7003;64644;48.914;2.254;2022-12-07T12:54:29;37.50;33.00;22.00
75960;PMS7003;64644;48.914;2.254;2022-12-07T12:59:56;37.25;33.75;19.50
75960;PMS7003;64644;48.914;2.254;2022-12-07T13:15:43;36.75;26.25;19.00
75960;PMS7003;64644;48.914;2.254;2022-12-07T13:31:55;24.00;22.25;16.00
75960;PMS7003;64644;48.914;2.254;2022-12-07T13:37:01;25.00;23.75;16.00
75960;PMS7003;64644;48.914;2.254;2022-12-07T13:39:51;28.00;23.75;18.75
75960;PMS7003;64644;48.914;2.254;2022-12-07T13:42:26;28.75;26.00;18.25
75960;PMS7003;64644;48.914;2.254;2022-12-07T13:44:52;29.75;23.75;14.00
75960;PMS7003;64644;48.914;2.254;2022-12-07T13:47:22;27.25;23.25;15.75
75960;PMS7003;64644;48.914;2.254;2022-12-07T13:50:00;25.00;21.50;15.50
75960;PMS7003;64644;48.914;2.254;2022-12-07T13:52:27;29.00;24.50;15.75
75960;PMS7003;64644;48.914;2.254;2022-12-07T13:54:58;23.75;23.00;19.00
75960;PMS7003;64644;48.914;2.254;2022-12-07T13:57:25;27.00;25.00;19.25
75960;PMS7003;64644;48.914;2.254;2022-12-07T13:59:52;28.75;27.00;19.00
75960;PMS7003;64644;48.914;2.254;2022-12-07T14:04:44;26.25;22.25;14.75
75960;PMS7003;64644;48.914;2.254;2022-12-07T14:07:21;25.75;23.50;15.25
75960;PMS7003;64644;48.914;2.254;2022-12-07T14:09:55;20.50;18.75;13.00
75960;PMS7003;64644;48.914;2.254;2022-12-07T14:12:25;31.50;23.00;16.75
75960;PMS7003;64644;48.914;2.254;2022-12-07T14:14:51;17.75;17.75;12.75
75960;PMS7003;64644;48.914;2.254;2022-12-07T14:17:21;22.75;18.25;15.00
75960;PMS7003;64644;48.914;2.254;2022-12-07T14:19:52;16.50;16.25;12.00
75960;PMS7003;64644;48.914;2.254;2022-12-07T14:22:27;19.25;18.75;14.00
75960;PMS7003;64644;48.914;2.254;2022-12-07T14:25:26;22.00;21.50;15.75
75960;PMS7003;64644;48.914;2.254;2022-12-07T14:27:50;21.75;21.75;16.00
75960;PMS7003;64644;48.914;2.254;2022-12-07T14:30:32;22.75;20.75;12.75
75960;PMS7003;64644;48.914;2.254;2022-12-07T14:32:59;16.00;15.75;12.00
75960;PMS7003;64644;48.914;2.254;2022-12-07T14:35:26;25.25;21.50;12.75
75960;PMS7003;64644;48.914;2.254;2022-12-07T14:37:53;18.50;17.25;12.75
75960;PMS7003;64644;48.914;2.254;2022-12-07T14:40:22;21.25;16.25;11.00
75960;PMS7003;64644;48.914;2.254;2022-12-07T14:42:50;18.00;18.00;14.25
75960;PMS7003;64644;48.914;2.254;2022-12-07T14:45:22;24.25;22.50;15.50
75960;PMS7003;64644;48.914;2.254;2022-12-07T14:47:48;26.00;20.50;15.00
75960;PMS7003;64644;48.914;2.254;2022-12-07T14:50:14;23.00;21.25;15.50
75960;PMS7003;64644;48.914;2.254;2022-12-07T14:52:43;22.25;21.00;12.75
75960;PMS7003;64644;48.914;2.254;2022-12-07T14:55:13;25.75;21.00;15.00
75960;PMS7003;64644;48.914;2.254;2022-12-07T14:57:42;22.25;19.00;13.00
75960;PMS7003;64644;48.914;2.254;2022-12-07T15:00:09;22.50;22.50;15.75
75960;PMS7003;64644;48.914;2.254;2022-12-07T15:02:38;22.00;20.50;12.75
75960;PMS7003;64644;48.914;2.254;2022-12-07T15:05:04;16.00;16.00;10.25
75960;PMS7003;64644;48.914;2.254;2022-12-07T15:07:29;21.50;20.00;12.50
75960;PMS7003;64644;48.914;2.254;2022-12-07T15:09:54;18.00;17.75;12.75
75960;PMS7003;64644;48.914;2.254;2022-12-07T15:12:20;24.50;20.00;16.00
75960;PMS7003;64644;48.914;2.254;2022-12-07T15:14:45;21.00;19.00;15.00
75960;PMS7003;64644;48.914;2.254;2022-12-07T15:17:11;24.00;21.75;12.25
75960;PMS7003;64644;48.914;2.254;2022-12-07T15:19:39;24.75;24.75;17.00
75960;PMS7003;64644;48.914;2.254;2022-12-07T15:22:05;23.00;19.00;13.00
75960;PMS7003;64644;48.914;2.254;2022-12-07T15:24:30;23.50;23.00;16.75
75960;PMS7003;64644;48.914;2.254;2022-12-07T15:26:55;27.00;22.50;15.00
75960;PMS7003;64644;48.914;2.254;2022-12-07T15:29:21;22.75;22.00;14.75
75960;PMS7003;64644;48.914;2.254;2022-12-07T15:31:48;26.00;23.50;13.00
75960;PMS7003;64644;48.914;2.254;2022-12-07T15:34:14;27.25;23.00;16.00
75960;PMS7003;64644;48.914;2.254;2022-12-07T15:36:39;30.50;26.50;18.50
75960;PMS7003;64644;48.914;2.254;2022-12-07T15:39:05;20.75;17.50;13.25
75960;PMS7003;64644;48.914;2.254;2022-12-07T15:41:30;22.50;18.50;14.75
75960;PMS7003;64644;48.914;2.254;2022-12-07T15:43:55;22.75;21.75;13.75
75960;PMS7003;64644;48.914;2.254;2022-12-07T15:46:40;23.00;22.00;13.25
75960;PMS7003;64644;48.914;2.254;2022-12-07T15:49:08;24.25;22.25;16.00
75960;PMS7003;64644;48.914;2.254;2022-12-07T15:51:36;24.25;19.50;13.25
75960;PMS7003;64644;48.914;2.254;2022-12-07T15:54:01;22.25;21.00;13.25
75960;PMS7003;64644;48.914;2.254;2022-12-07T15:56:27;29.50;23.00;15.75
75960;PMS7003;64644;48.914;2.254;2022-12-07T15:58:52;24.00;17.00;14.50
75960;PMS7003;64644;48.914;2.254;2022-12-07T16:01:18;7.00;7.00;4.50
75960;PMS7003;64644;48.914;2.254;2022-12-07T16:03:45;24.00;21.50;15.00
75960;PMS7003;64644;48.914;2.254;2022-12-07T16:06:15;20.25;20.00;15.25
75960;PMS7003;64644;48.914;2.254;2022-12-07T16:08:42;24.25;20.25;13.50
75960;PMS7003;64644;48.914;2.254;2022-12-07T16:11:09;20.75;19.75;14.75
75960;PMS7003;64644;48.914;2.254;2022-12-07T16:13:34;22.25;21.50;15.00
75960;PMS7003;64644;48.914;2.254;2022-12-07T16:16:07;32.00;25.50;15.50
75960;PMS7003;64644;48.914;2.254;2022-12-07T16:18:37;19.00;17.75;11.50
75960;PMS7003;64644;48.914;2.254;2022-12-07T16:21:02;24.25;20.00;15.00
75960;PMS7003;64644;48.914;2.254;2022-12-07T16:23:28;23.50;22.00;15.25